createdAt,value
2022-12-31T00:00:14.980Z,99178.34
2022-12-31T00:02:42.241Z,99187.75
2022-12-31T00:05:09.929Z,99178.41
2022-12-31T00:10:05.273Z,99189.47
2022-12-31T00:12:31.950Z,99189.47
2022-12-31T00:14:58.655Z,99186.38
2022-12-31T00:17:25.328Z,99191.63
2022-12-31T00:19:54.274Z,99188.53
2022-12-31T00:22:21.004Z,99191.66
2022-12-31T00:24:47.693Z,99191.31
2022-12-31T00:27:14.419Z,99189.88
2022-12-31T00:29:41.354Z,99177.78
2022-12-31T00:32:08.127Z,99190.31
2022-12-31T00:34:34.718Z,99183.66
2022-12-31T00:37:02.483Z,99188.69
2022-12-31T00:39:29.187Z,99184.13
2022-12-31T00:41:56.501Z,99186.66
2022-12-31T00:44:23.300Z,99183.06
2022-12-31T00:46:50.100Z,99174.75
2022-12-31T00:49:17.112Z,99183.34
2022-12-31T00:51:44.044Z,99179.41
2022-12-31T00:54:10.753Z,99184.63
2022-12-31T00:56:37.342Z,99191.53
2022-12-31T00:59:04.356Z,99179.81
2022-12-31T01:01:34.772Z,99180.88
2022-12-31T01:04:13.426Z,99189.00
2022-12-31T01:06:40.972Z,99188.81
2022-12-31T01:09:08.642Z,99196.94
2022-12-31T01:11:36.100Z,99200.28
2022-12-31T01:14:07.012Z,99201.31
2022-12-31T01:16:49.469Z,99204.66
2022-12-31T01:19:20.203Z,99196.53
2022-12-31T01:21:48.567Z,99193.63
2022-12-31T01:24:16.134Z,99191.75
2022-12-31T01:26:43.319Z,99191.75
2022-12-31T01:29:10.537Z,99194.47
2022-12-31T01:31:38.191Z,99199.06
2022-12-31T01:34:05.613Z,99211.78
2022-12-31T01:36:36.177Z,99209.88
2022-12-31T01:39:05.706Z,99212.59
2022-12-31T01:41:41.025Z,99221.53
2022-12-31T01:44:13.738Z,99210.72
2022-12-31T01:47:01.087Z,99218.84
2022-12-31T01:49:41.016Z,99219.03
2022-12-31T01:52:12.176Z,99214.47
2022-12-31T01:54:44.698Z,99203.19
2022-12-31T01:57:12.793Z,99197.13
2022-12-31T01:59:39.670Z,99201.69
2022-12-31T02:02:06.589Z,99194.63
2022-12-31T02:04:33.440Z,99192.09
2022-12-31T02:07:03.728Z,99189.56
2022-12-31T02:09:32.544Z,99195.00
2022-12-31T02:11:59.730Z,99198.94
2022-12-31T02:14:43.854Z,99194.75
2022-12-31T02:17:44.246Z,99179.75
2022-12-31T02:20:25.910Z,99192.81
2022-12-31T02:22:52.480Z,99187.81
2022-12-31T02:25:34.353Z,99178.59
2022-12-31T02:28:06.662Z,99176.28
2022-12-31T02:30:34.875Z,99179.19
2022-12-31T02:33:10.620Z,99183.50
2022-12-31T02:35:58.672Z,99178.03
2022-12-31T02:38:33.121Z,99174.59
2022-12-31T02:41:00.989Z,99182.28
2022-12-31T02:43:27.839Z,99190.59
2022-12-31T02:46:26.009Z,99191.41
2022-12-31T02:49:01.710Z,99198.91
2022-12-31T02:51:51.818Z,99193.84
2022-12-31T02:54:28.716Z,99189.84
2022-12-31T02:57:38.041Z,99186.50
2022-12-31T03:00:34.322Z,99189.03
2022-12-31T03:03:08.902Z,99186.31
2022-12-31T03:05:41.697Z,99197.13
2022-12-31T03:08:09.337Z,99197.34
2022-12-31T03:10:37.007Z,99195.66
2022-12-31T03:13:03.842Z,99186.50
2022-12-31T03:15:33.747Z,99176.91
2022-12-31T03:18:13.317Z,99174.00
2022-12-31T03:21:02.975Z,99175.69
2022-12-31T03:23:39.513Z,99153.22
2022-12-31T03:26:10.685Z,99163.56
2022-12-31T03:28:39.390Z,99158.34
2022-12-31T03:31:09.456Z,99171.06
2022-12-31T03:33:39.339Z,99181.69
2022-12-31T03:36:11.891Z,99193.34
2022-12-31T03:38:38.598Z,99186.44
2022-12-31T03:41:05.739Z,99190.16
2022-12-31T03:43:32.480Z,99185.41
2022-12-31T03:46:01.541Z,99177.94
2022-12-31T03:48:28.730Z,99191.09
2022-12-31T03:50:55.683Z,99183.59
2022-12-31T03:53:22.316Z,99186.50
2022-12-31T03:55:53.437Z,99181.09
2022-12-31T03:59:19.938Z,99191.09
2022-12-31T04:02:46.622Z,99184.44
2022-12-31T04:09:56.087Z,99165.69
2022-12-31T04:13:22.523Z,99161.88
2022-12-31T04:16:52.221Z,99173.75
2022-12-31T04:19:19.081Z,99161.25
2022-12-31T04:21:45.754Z,99163.97
2022-12-31T04:24:12.556Z,99166.28
2022-12-31T04:26:39.761Z,99175.22
2022-12-31T04:29:06.331Z,99179.34
2022-12-31T04:31:33.322Z,99163.31
2022-12-31T04:34:00.080Z,99147.25
2022-12-31T04:36:26.989Z,99126.47
2022-12-31T04:38:53.685Z,99136.91
2022-12-31T04:41:20.895Z,99134.84
2022-12-31T04:43:52.812Z,99148.00
2022-12-31T04:46:22.135Z,99167.75
2022-12-31T04:48:48.783Z,99177.38
2022-12-31T04:51:16.226Z,99177.38
2022-12-31T04:53:42.965Z,99183.59
2022-12-31T04:56:10.605Z,99186.97
2022-12-31T04:58:39.465Z,99191.53
2022-12-31T05:01:07.146Z,99199.47
2022-12-31T05:03:35.162Z,99201.97
2022-12-31T05:06:06.675Z,99201.81
2022-12-31T05:08:33.987Z,99197.41
2022-12-31T05:11:01.048Z,99192.00
2022-12-31T05:13:32.957Z,99205.34
2022-12-31T05:16:00.326Z,99210.75
2022-12-31T05:18:27.004Z,99219.50
2022-12-31T05:20:53.799Z,99224.91
2022-12-31T05:23:20.760Z,99216.97
2022-12-31T05:25:48.104Z,99220.16
2022-12-31T05:28:16.277Z,99215.75
2022-12-31T05:30:44.378Z,99214.09
2022-12-31T05:33:11.100Z,99217.66
2022-12-31T05:35:37.748Z,99220.53
2022-12-31T05:38:04.559Z,99226.16
2022-12-31T05:40:31.226Z,99224.28
2022-12-31T05:42:57.967Z,99234.91
2022-12-31T05:45:30.427Z,99238.63
2022-12-31T05:47:57.792Z,99248.25
2022-12-31T05:50:24.590Z,99251.16
2022-12-31T05:52:51.504Z,99249.47
2022-12-31T05:55:18.139Z,99251.34
2022-12-31T05:57:44.744Z,99256.75
2022-12-31T06:00:12.099Z,99251.34
2022-12-31T06:02:38.891Z,99229.88
2022-12-31T06:05:05.842Z,99227.09
2022-12-31T06:07:32.938Z,99250.63
2022-12-31T06:09:59.690Z,99255.84
2022-12-31T06:12:26.437Z,99257.50
2022-12-31T06:14:53.153Z,99254.44
2022-12-31T06:17:20.662Z,99245.25
2022-12-31T06:19:47.330Z,99242.56
2022-12-31T06:22:14.132Z,99244.44
2022-12-31T06:24:41.003Z,99255.44
2022-12-31T06:27:07.621Z,99259.66
2022-12-31T06:29:34.329Z,99261.34
2022-12-31T06:32:00.950Z,99261.16
2022-12-31T06:34:27.578Z,99262.78
2022-12-31T06:36:54.373Z,99255.53
2022-12-31T06:39:21.240Z,99264.47
2022-12-31T06:41:47.879Z,99274.28
2022-12-31T06:44:15.045Z,99278.69
2022-12-31T06:46:41.877Z,99282.03
2022-12-31T06:49:08.665Z,99289.94
2022-12-31T06:51:35.466Z,99299.94
2022-12-31T06:54:02.683Z,99299.75
2022-12-31T06:56:34.353Z,99295.81
2022-12-31T06:59:03.483Z,99306.66
2022-12-31T07:02:05.615Z,99303.94
2022-12-31T07:04:42.718Z,99296.84
2022-12-31T07:07:21.708Z,99316.63
2022-12-31T07:10:02.686Z,99313.09
2022-12-31T07:12:59.174Z,99301.25
2022-12-31T07:16:04.620Z,99282.50
2022-12-31T07:18:40.453Z,99273.69
2022-12-31T07:21:19.412Z,99265.78
2022-12-31T07:23:46.362Z,99265.16
2022-12-31T07:26:42.833Z,99259.94
2022-12-31T07:29:24.633Z,99272.41
2022-12-31T07:31:54.225Z,99286.78
2022-12-31T07:34:32.686Z,99297.44
2022-12-31T07:37:15.562Z,99307.88
2022-12-31T07:39:55.935Z,99299.75
2022-12-31T07:42:29.737Z,99298.25
2022-12-31T07:45:17.967Z,99300.31
2022-12-31T07:47:45.073Z,99317.59
2022-12-31T07:50:17.522Z,99306.75
2022-12-31T07:52:45.060Z,99312.75
2022-12-31T07:55:11.965Z,99314.31
2022-12-31T07:57:52.417Z,99321.22
2022-12-31T08:00:19.476Z,99315.38
2022-12-31T08:03:17.153Z,99313.69
2022-12-31T08:06:11.057Z,99296.44
2022-12-31T08:09:04.786Z,99293.06
2022-12-31T08:11:46.251Z,99297.63
2022-12-31T08:15:12.748Z,99305.56
2022-12-31T08:18:51.298Z,99309.28
2022-12-31T08:22:25.057Z,99281.78
2022-12-31T08:25:32.641Z,99274.88
2022-12-31T08:28:31.192Z,99286.72
2022-12-31T08:32:00.626Z,99287.56
2022-12-31T08:35:19.532Z,99284.50
2022-12-31T08:37:55.168Z,99290.09
2022-12-31T08:40:28.635Z,99302.13
2022-12-31T08:43:20.764Z,99314.81
2022-12-31T08:45:50.119Z,99305.47
2022-12-31T08:48:42.832Z,99314.59
2022-12-31T08:51:20.331Z,99318.38
2022-12-31T08:53:48.418Z,99318.56
2022-12-31T08:56:30.502Z,99315.00
2022-12-31T08:59:15.709Z,99320.41
2022-12-31T09:01:51.318Z,99311.06
2022-12-31T09:04:43.783Z,99309.19
2022-12-31T09:07:12.117Z,99301.75
2022-12-31T09:09:47.505Z,99289.06
2022-12-31T09:12:35.898Z,99292.41
2022-12-31T09:15:30.672Z,99305.94
2022-12-31T09:17:57.867Z,99312.00
2022-12-31T09:20:42.377Z,99303.50
2022-12-31T09:23:11.227Z,99310.41
2022-12-31T09:26:06.445Z,99304.44
2022-12-31T09:28:43.272Z,99304.06
2022-12-31T09:31:21.893Z,99302.84
2022-12-31T09:33:58.002Z,99301.97
2022-12-31T09:36:30.942Z,99307.03
2022-12-31T09:39:03.985Z,99293.50
2022-12-31T09:41:55.733Z,99304.97
2022-12-31T09:45:00.004Z,99308.34
2022-12-31T09:47:51.519Z,99296.25
2022-12-31T09:50:52.695Z,99295.06
2022-12-31T09:53:31.413Z,99309.88
2022-12-31T09:56:11.837Z,99316.97
2022-12-31T09:58:41.217Z,99320.13
2022-12-31T10:01:13.546Z,99322.69
2022-12-31T10:04:27.955Z,99331.25
2022-12-31T10:07:09.770Z,99341.03
2022-12-31T10:09:46.238Z,99349.63
2022-12-31T10:12:27.286Z,99344.84
2022-12-31T10:15:05.936Z,99339.25
2022-12-31T10:17:53.812Z,99325.50
2022-12-31T10:20:26.450Z,99331.59
2022-12-31T10:23:26.553Z,99335.97
2022-12-31T10:26:14.121Z,99345.56
2022-12-31T10:28:56.174Z,99352.47
2022-12-31T10:31:44.649Z,99360.88
2022-12-31T10:34:16.137Z,99359.28
2022-12-31T10:37:04.135Z,99345.81
2022-12-31T10:39:47.580Z,99353.34
2022-12-31T10:42:29.649Z,99355.47
2022-12-31T10:45:05.066Z,99345.28
2022-12-31T10:47:43.706Z,99340.69
2022-12-31T10:50:33.619Z,99325.72
2022-12-31T10:53:09.586Z,99329.91
2022-12-31T10:55:51.443Z,99320.75
2022-12-31T10:58:44.321Z,99321.41
2022-12-31T11:01:14.272Z,99310.16
2022-12-31T11:03:56.302Z,99311.66
2022-12-31T11:06:57.147Z,99310.41
2022-12-31T11:09:39.091Z,99311.72
2022-12-31T11:12:27.629Z,99315.69
2022-12-31T11:15:10.217Z,99309.69
2022-12-31T11:17:51.941Z,99303.03
2022-12-31T11:20:51.674Z,99304.53
2022-12-31T11:23:39.758Z,99295.97
2022-12-31T11:26:44.915Z,99306.63
2022-12-31T11:29:23.461Z,99302.25
2022-12-31T11:32:06.224Z,99295.78
2022-12-31T11:34:58.737Z,99291.00
2022-12-31T11:37:48.788Z,99281.06
2022-12-31T11:40:27.337Z,99280.69
2022-12-31T11:43:11.329Z,99271.50
2022-12-31T11:46:08.001Z,99280.28
2022-12-31T11:49:00.942Z,99268.00
2022-12-31T11:51:48.444Z,99261.13
2022-12-31T11:54:38.392Z,99257.84
2022-12-31T11:57:32.645Z,99253.88
2022-12-31T12:00:02.523Z,99245.72
2022-12-31T12:02:34.854Z,99264.72
2022-12-31T12:05:10.728Z,99248.88
2022-12-31T12:07:38.039Z,99243.69
2022-12-31T12:10:19.602Z,99252.91
2022-12-31T12:12:46.290Z,99266.06
2022-12-31T12:15:20.911Z,99257.72
2022-12-31T12:17:52.755Z,99260.03
2022-12-31T12:20:26.960Z,99250.25
2022-12-31T12:22:56.410Z,99246.31
2022-12-31T12:25:26.645Z,99233.59
2022-12-31T12:27:54.251Z,99232.16
2022-12-31T12:30:28.681Z,99229.25
2022-12-31T12:32:57.070Z,99218.41
2022-12-31T12:35:29.650Z,99206.94
2022-12-31T12:38:06.003Z,99214.88
2022-12-31T12:40:34.658Z,99215.09
2022-12-31T12:43:02.925Z,99200.69
2022-12-31T12:45:40.228Z,99196.50
2022-12-31T12:48:26.544Z,99191.28
2022-12-31T12:50:53.295Z,99191.50
2022-12-31T12:53:41.667Z,99199.19
2022-12-31T12:56:30.680Z,99192.50
2022-12-31T12:59:19.640Z,99195.19
2022-12-31T13:02:11.013Z,99207.50
2022-12-31T13:04:50.655Z,99195.81
2022-12-31T13:07:23.758Z,99175.16
2022-12-31T13:09:59.592Z,99173.28
2022-12-31T13:13:13.900Z,99177.22
2022-12-31T13:15:49.455Z,99183.31
2022-12-31T13:18:40.780Z,99188.09
2022-12-31T13:21:32.591Z,99193.72
2022-12-31T13:24:14.542Z,99192.69
2022-12-31T13:26:54.848Z,99197.72
2022-12-31T13:29:26.390Z,99185.22
2022-12-31T13:31:57.010Z,99177.28
2022-12-31T13:34:29.233Z,99179.38
2022-12-31T13:36:59.614Z,99175.81
2022-12-31T13:39:31.259Z,99165.81
2022-12-31T13:42:25.757Z,99168.31
2022-12-31T13:45:02.632Z,99169.13
2022-12-31T13:47:39.365Z,99167.69
2022-12-31T13:50:27.781Z,99157.84
2022-12-31T13:52:58.563Z,99156.00
2022-12-31T13:55:42.491Z,99153.25
2022-12-31T13:58:31.668Z,99166.00
2022-12-31T14:01:13.949Z,99175.63
2022-12-31T14:03:49.435Z,99180.84
2022-12-31T14:06:36.755Z,99184.19
2022-12-31T14:09:04.854Z,99185.66
2022-12-31T14:11:37.278Z,99184.19
2022-12-31T14:14:19.930Z,99177.91
2022-12-31T14:17:08.724Z,99166.63
2022-12-31T14:20:02.947Z,99169.75
2022-12-31T14:22:52.023Z,99167.25
2022-12-31T14:25:27.841Z,99168.28
2022-12-31T14:27:56.694Z,99171.88
2022-12-31T14:30:30.908Z,99167.91
2022-12-31T14:33:15.646Z,99175.41
2022-12-31T14:36:20.412Z,99182.31
2022-12-31T14:39:24.588Z,99188.38
2022-12-31T14:42:02.887Z,99194.00
2022-12-31T14:45:04.292Z,99192.34
2022-12-31T14:47:59.740Z,99191.28
2022-12-31T14:50:29.687Z,99197.78
2022-12-31T14:53:17.800Z,99193.59
2022-12-31T14:55:44.487Z,99199.88
2022-12-31T14:58:35.142Z,99194.88
2022-12-31T15:01:08.605Z,99190.88
2022-12-31T15:03:44.714Z,99190.03
2022-12-31T15:06:24.493Z,99182.94
2022-12-31T15:09:12.995Z,99193.78
2022-12-31T15:11:39.573Z,99197.38
2022-12-31T15:14:37.938Z,99197.38
2022-12-31T15:17:32.446Z,99193.41
2022-12-31T15:20:26.434Z,99193.81
2022-12-31T15:22:54.508Z,99190.66
2022-12-31T15:25:40.116Z,99185.03
2022-12-31T15:28:28.675Z,99177.69
2022-12-31T15:31:03.743Z,99190.84
2022-12-31T15:33:32.549Z,99197.72
2022-12-31T15:36:21.364Z,99199.16
2022-12-31T15:38:49.064Z,99209.16
2022-12-31T15:41:19.811Z,99211.44
2022-12-31T15:43:52.476Z,99211.84
2022-12-31T15:46:24.183Z,99219.16
2022-12-31T15:49:03.752Z,99226.88
2022-12-31T15:51:54.179Z,99224.16
2022-12-31T15:54:36.331Z,99230.44
2022-12-31T15:57:09.218Z,99246.09
2022-12-31T15:59:38.229Z,99250.47
2022-12-31T16:02:17.891Z,99259.28
2022-12-31T16:04:45.060Z,99267.00
2022-12-31T16:07:12.624Z,99267.63
2022-12-31T16:09:40.036Z,99265.34
2022-12-31T16:12:16.025Z,99242.41
2022-12-31T16:14:58.521Z,99237.59
2022-12-31T16:17:36.755Z,99238.22
2022-12-31T16:20:23.867Z,99232.59
2022-12-31T16:22:57.645Z,99237.16
2022-12-31T16:25:33.121Z,99236.75
2022-12-31T16:28:03.063Z,99245.50
2022-12-31T16:30:32.621Z,99246.94
2022-12-31T16:33:03.170Z,99249.41
2022-12-31T16:35:38.614Z,99262.75
2022-12-31T16:38:08.051Z,99262.13
2022-12-31T16:40:35.462Z,99267.53
2022-12-31T16:43:02.206Z,99269.81
2022-12-31T16:46:25.340Z,99279.59
2022-12-31T16:49:14.309Z,99277.91
2022-12-31T16:51:41.642Z,99277.25
2022-12-31T16:54:19.628Z,99275.38
2022-12-31T16:56:46.551Z,99275.19
2022-12-31T16:59:29.327Z,99270.59
2022-12-31T17:02:03.108Z,99262.44
2022-12-31T17:04:30.110Z,99267.06
2022-12-31T17:07:25.571Z,99266.84
2022-12-31T17:10:07.735Z,99262.25
2022-12-31T17:13:17.077Z,99279.19
2022-12-31T17:15:29.881Z,99275.41
2022-12-31T17:18:03.651Z,99278.13
2022-12-31T17:20:33.547Z,99275.41
2022-12-31T17:23:05.339Z,99286.66
2022-12-31T17:25:34.316Z,99290.41
2022-12-31T17:28:05.541Z,99292.28
2022-12-31T17:30:35.302Z,99295.22
2022-12-31T17:33:22.034Z,99309.59
2022-12-31T17:35:54.411Z,99303.34
2022-12-31T17:38:21.020Z,99305.03
2022-12-31T17:40:53.639Z,99302.31
2022-12-31T17:43:22.914Z,99303.34
2022-12-31T17:45:54.473Z,99299.34
2022-12-31T17:48:25.029Z,99297.44
2022-12-31T17:50:57.074Z,99295.91
2022-12-31T17:53:24.253Z,99306.91
2022-12-31T17:55:57.192Z,99307.28
2022-12-31T17:58:29.670Z,99309.81
2022-12-31T18:00:58.005Z,99307.94
2022-12-31T18:03:24.872Z,99307.13
2022-12-31T18:05:51.507Z,99302.69
2022-12-31T18:08:18.393Z,99303.91
2022-12-31T18:10:45.608Z,99306.41
2022-12-31T18:13:22.397Z,99301.75
2022-12-31T18:15:49.587Z,99313.38
2022-12-31T18:18:28.423Z,99304.59
2022-12-31T18:20:58.702Z,99312.72
2022-12-31T18:23:39.136Z,99309.63
2022-12-31T18:26:06.110Z,99313.00
2022-12-31T18:28:32.831Z,99316.16
2022-12-31T18:30:59.760Z,99314.28
2022-12-31T18:33:26.916Z,99313.25
2022-12-31T18:36:10.437Z,99317.63
2022-12-31T18:38:38.241Z,99325.13
2022-12-31T18:41:05.643Z,99335.13
2022-12-31T18:43:32.461Z,99341.19
2022-12-31T18:46:00.001Z,99348.28
2022-12-31T18:48:26.825Z,99356.84
2022-12-31T18:50:53.688Z,99356.66
2022-12-31T18:53:26.981Z,99359.84
2022-12-31T18:55:56.162Z,99363.38
2022-12-31T18:58:23.460Z,99366.94
2022-12-31T19:00:51.621Z,99366.56
2022-12-31T19:03:31.634Z,99365.34
2022-12-31T19:05:58.326Z,99360.75
2022-12-31T19:08:25.077Z,99355.31
2022-12-31T19:10:52.774Z,99359.72
2022-12-31T19:13:20.108Z,99353.47
2022-12-31T19:15:51.905Z,99351.13
2022-12-31T19:18:19.221Z,99364.22
2022-12-31T19:20:46.453Z,99374.00
2022-12-31T19:23:16.481Z,99367.47
2022-12-31T19:25:43.182Z,99367.84
2022-12-31T19:28:28.493Z,99369.25
2022-12-31T19:30:55.395Z,99366.13
2022-12-31T19:33:22.239Z,99368.75
2022-12-31T19:35:49.321Z,99365.63
2022-12-31T19:38:25.463Z,99377.88
2022-12-31T19:40:53.900Z,99388.06
2022-12-31T19:43:22.356Z,99382.44
2022-12-31T19:45:50.998Z,99390.16
2022-12-31T19:48:21.031Z,99393.34
2022-12-31T19:50:50.669Z,99403.16
2022-12-31T19:53:25.763Z,99398.84
2022-12-31T19:55:52.918Z,99392.41
2022-12-31T19:58:22.045Z,99393.41
2022-12-31T20:00:54.817Z,99394.25
2022-12-31T20:03:22.764Z,99395.47
2022-12-31T20:05:49.707Z,99386.03
2022-12-31T20:08:20.405Z,99387.28
2022-12-31T20:10:47.127Z,99390.16
2022-12-31T20:13:13.764Z,99382.25
2022-12-31T20:15:47.730Z,99386.16
2022-12-31T20:18:17.606Z,99384.50
2022-12-31T20:20:51.653Z,99381.13
2022-12-31T20:23:23.336Z,99376.13
2022-12-31T20:25:57.888Z,99381.72
2022-12-31T20:28:24.709Z,99380.44
2022-12-31T20:30:51.692Z,99394.19
2022-12-31T20:33:19.345Z,99394.19
2022-12-31T20:35:46.694Z,99404.34
2022-12-31T20:38:14.603Z,99401.63
2022-12-31T20:40:46.409Z,99406.91
2022-12-31T20:43:13.733Z,99412.75
2022-12-31T20:45:41.755Z,99421.16
2022-12-31T20:48:08.590Z,99422.84
2022-12-31T20:50:37.521Z,99419.06
2022-12-31T20:53:04.222Z,99409.09
2022-12-31T20:55:32.301Z,99419.94
2022-12-31T20:58:00.580Z,99414.72
2022-12-31T21:00:27.206Z,99420.13
2022-12-31T21:03:03.920Z,99404.22
2022-12-31T21:05:33.481Z,99402.94
2022-12-31T21:08:00.414Z,99401.47
2022-12-31T21:10:27.017Z,99413.53
2022-12-31T21:12:54.037Z,99415.56
2022-12-31T21:15:21.683Z,99418.66
2022-12-31T21:17:48.549Z,99421.78
2022-12-31T21:20:15.340Z,99413.66
2022-12-31T21:22:42.042Z,99416.53
2022-12-31T21:25:10.558Z,99419.44
2022-12-31T21:27:37.333Z,99420.47
2022-12-31T21:30:20.394Z,99416.06
2022-12-31T21:32:47.368Z,99412.72
2022-12-31T21:35:42.299Z,99419.16
2022-12-31T21:38:06.002Z,99424.97
2022-12-31T21:40:33.044Z,99422.25
2022-12-31T21:43:00.240Z,99417.03
2022-12-31T21:45:27.083Z,99426.19
2022-12-31T21:48:12.252Z,99425.31
2022-12-31T21:50:39.260Z,99436.16
2022-12-31T21:53:05.983Z,99442.44
2022-12-31T21:55:51.252Z,99448.69
2022-12-31T21:58:27.034Z,99445.97
2022-12-31T22:01:13.985Z,99450.75
2022-12-31T22:03:41.136Z,99453.66
2022-12-31T22:06:20.723Z,99465.31
2022-12-31T22:08:50.085Z,99463.81
2022-12-31T22:11:18.468Z,99469.44
2022-12-31T22:13:45.779Z,99473.16
2022-12-31T22:16:15.460Z,99480.44
2022-12-31T22:18:44.137Z,99478.94
2022-12-31T22:21:19.010Z,99491.47
2022-12-31T22:23:48.579Z,99489.78
2022-12-31T22:26:17.106Z,99493.50
2022-12-31T22:28:45.171Z,99495.19
2022-12-31T22:31:21.678Z,99494.56
2022-12-31T22:33:48.553Z,99496.41
2022-12-31T22:36:18.264Z,99494.91
2022-12-31T22:38:46.078Z,99499.69
2022-12-31T22:41:18.947Z,99497.16
2022-12-31T22:43:49.184Z,99500.41
2022-12-31T22:46:17.209Z,99510.59
2022-12-31T22:48:44.025Z,99511.63
2022-12-31T22:51:11.639Z,99513.69
2022-12-31T22:53:39.933Z,99513.50
2022-12-31T22:56:07.536Z,99526.84
2022-12-31T22:58:34.760Z,99520.59
2022-12-31T23:01:08.652Z,99527.47
2022-12-31T23:03:35.635Z,99530.38
2022-12-31T23:06:02.395Z,99527.47
2022-12-31T23:08:29.078Z,99530.88
2022-12-31T23:11:02.512Z,99543.00
2022-12-31T23:13:58.709Z,99544.50
2022-12-31T23:16:46.720Z,99552.25
2022-12-31T23:19:33.202Z,99549.34
2022-12-31T23:22:18.989Z,99553.75
2022-12-31T23:24:45.723Z,99566.91
2022-12-31T23:27:12.365Z,99562.31
2022-12-31T23:29:46.063Z,99562.50
2022-12-31T23:32:17.597Z,99564.41
2022-12-31T23:34:45.680Z,99566.28
2022-12-31T23:37:13.600Z,99563.56
2022-12-31T23:39:40.515Z,99573.34
2022-12-31T23:42:07.294Z,99581.47
2022-12-31T23:44:33.945Z,99583.53
2022-12-31T23:47:00.812Z,99586.44
2022-12-31T23:49:27.618Z,99592.03
2022-12-31T23:51:54.200Z,99581.38
2022-12-31T23:55:20.809Z,99600.06
